Terminal Aerodrome Forecast
Issued by NWS

Home | Current Version | Previous Version | Text Only | Print | Product List | Glossary On
Versions: 1 2 3 4 5 6 7 8 9 10 11 12 13 14 15 16 17
000
FTUS41 KCAR 211100
TAFHUL
TAF
KHUL 211123Z 2112/2212 VRB03KT 3SM BR SCT001 BKN050
     FM211300 05005KT P6SM BKN050
     FM220600 10004KT P6SM BKN045=

USA.gov is the U.S. government's official web portal to all federal, state and local government web resources and services.